Terminal Aerodrome Forecast
Issued by NWS

Home | Current Version | Previous Version | Text Only | Print | Product List | Glossary Off
Versions: 1 2 3 4 5 6 7 8 9 10 11 12 13 14 15 16 17

245
FTUS43 KABR 271739
TAFMBG
TAF
KMBG 271739Z 2718/2818 04015G22KT P6SM -RA OVC045
     FM280000 05014KT P6SM SHRA OVC035
     FM280300 04013KT P6SM SHRASN OVC015
     FM281100 04010KT 4SM -SHSN OVC008
     FM281500 04008KT P6SM -SHRA OVC015=

USA.gov is the U.S. government's official web portal to all federal, state and local government web resources and services.